Sign-in with your pilot id or email, or register

ICAO: LSZH Name / Country: Zurich / Switzerland
Latitude: 47.4647 Longitude: 8.54917
Total Arrivals:
Deprecated: Non-static method AirportData::getarrflights() should not be called statically, assuming $this from incompatible context in /var/www/customers/vh-7192/web/home/phpvms/core/templates/airport_info.tpl on line 18
0
Total Departures:
Deprecated: Non-static method AirportData::getdeptflights() should not be called statically, assuming $this from incompatible context in /var/www/customers/vh-7192/web/home/phpvms/core/templates/airport_info.tpl on line 21
2
Latest Arrival: (-) Latest Departure: MTAMAH1234 (LSZH-ESSA) Laszlo Bartucz
Metar: LSZH 211420Z 02005KT 350V060 9999 FEW045 19/09 Q1027 NOSIG
More info

Charts for LSZH


NOTAM


Warning: file_get_contents(http://api.vateud.net/notams/LSZH.json): failed to open stream: HTTP request failed! HTTP/1.1 404 Not Found in /var/www/customers/vh-7192/web/home/phpvms/core/common/NOTAMSData.class.php on line 18

Warning: Invalid argument supplied for foreach() in /var/www/customers/vh-7192/web/home/phpvms/core/common/NOTAMSData.class.php on line 22

Zurich